Time;durP1;ratioP1;P1;durP2;ratioP2;P2;SDS_P1;SDS_P2;PMS_P1;PMS_P2;Temp;Humidity;BMP_temperature;BMP_pressure;BME280_temperature;BME280_humidity;BME280_pressure;Samples;Min_cycle;Max_cycle;Signal;HPM_P1;HPM_P2
2024/01/12 00:00:20;;;;;;;2.72;1.67;;;;;;;-1.04;100.00;92889.94;5025603;28;20417;-77
2024/01/12 00:02:45;;;;;;;4.22;2.00;;;;;;;-0.98;100.00;92898.63;5023815;28;20045;-77
2024/01/12 00:05:11;;;;;;;2.28;1.55;;;;;;;-0.97;100.00;92902.75;5025415;28;20039;-77
2024/01/12 00:07:36;;;;;;;2.25;1.60;;;;;;;-1.00;100.00;92903.94;5028427;28;20188;-77
2024/01/12 00:10:02;;;;;;;2.55;1.65;;;;;;;-0.97;100.00;92902.75;5029200;28;20087;-77
2024/01/12 00:12:28;;;;;;;2.70;1.67;;;;;;;-0.96;100.00;92902.56;5027797;28;20280;-77
2024/01/12 00:14:53;;;;;;;2.05;1.45;;;;;;;-0.97;100.00;92898.38;5011676;28;20116;-77
2024/01/12 00:17:19;;;;;;;2.53;1.63;;;;;;;-0.98;100.00;92906.31;5025850;28;20049;-77
2024/01/12 00:19:48;;;;;;;2.30;1.48;;;;;;;-1.01;100.00;92902.38;5027748;28;20062;-77
2024/01/12 00:22:14;;;;;;;1.77;1.30;;;;;;;-1.00;100.00;92908.31;5027636;28;20041;-77
2024/01/12 00:24:39;;;;;;;1.63;1.30;;;;;;;-1.02;100.00;92902.59;5012167;28;20033;-77
2024/01/12 00:27:05;;;;;;;1.65;1.35;;;;;;;-1.09;100.00;92894.91;5028391;28;20068;-76
2024/01/12 00:29:30;;;;;;;1.50;1.30;;;;;;;-1.00;100.00;92905.75;5027760;28;20032;-77
2024/01/12 00:31:56;;;;;;;2.05;1.40;;;;;;;-1.00;100.00;92916.00;5029012;28;20045;-77
2024/01/12 00:34:22;;;;;;;1.67;1.33;;;;;;;-1.02;100.00;92912.84;5028949;28;20030;-76
2024/01/12 00:36:48;;;;;;;1.80;1.35;;;;;;;-1.07;100.00;92903.19;5016385;28;20238;-77
2024/01/12 00:39:17;;;;;;;1.40;1.20;;;;;;;-1.00;100.00;92903.94;5028305;28;20294;-77
2024/01/12 00:41:43;;;;;;;1.55;1.20;;;;;;;-1.00;100.00;92909.09;5028856;28;20400;-77
2024/01/12 00:44:08;;;;;;;1.15;1.05;;;;;;;-0.99;100.00;92904.72;5027240;28;20037;-76
2024/01/12 00:46:34;;;;;;;1.45;1.23;;;;;;;-0.98;100.00;92912.25;5029370;28;20197;-77
2024/01/12 00:49:00;;;;;;;2.28;1.50;;;;;;;-0.98;100.00;92904.53;5028684;28;20405;-77
2024/01/12 00:51:26;;;;;;;1.67;1.27;;;;;;;-0.96;100.00;92904.34;5023633;28;20120;-78
2024/01/12 00:53:51;;;;;;;1.50;1.30;;;;;;;-0.91;100.00;92896.78;5025720;28;20044;-77
2024/01/12 00:56:17;;;;;;;1.48;1.30;;;;;;;-0.91;100.00;92896.78;5027893;28;20107;-77
2024/01/12 00:58:43;;;;;;;1.25;1.15;;;;;;;-0.94;100.00;92900.56;5027183;28;20032;-77
2024/01/12 01:01:09;;;;;;;1.52;1.30;;;;;;;-0.97;100.00;92907.88;5027009;28;20131;-77
2024/01/12 01:03:38;;;;;;;1.20;1.10;;;;;;;-0.97;100.00;92897.59;5028697;28;20025;-77
2024/01/12 01:06:05;;;;;;;1.10;1.00;;;;;;;-0.97;100.00;92900.19;5026111;28;20113;-77
2024/01/12 01:08:30;;;;;;;0.98;0.98;;;;;;;-0.97;100.00;92895.03;5016169;28;20137;-77
2024/01/12 01:10:56;;;;;;;1.33;1.17;;;;;;;-1.01;100.00;92896.44;5025784;28;20133;-77
2024/01/12 01:13:22;;;;;;;1.52;1.30;;;;;;;-0.99;100.00;92897.03;5028167;28;20109;-77
2024/01/12 01:15:48;;;;;;;1.40;1.20;;;;;;;-0.97;100.00;92900.19;5026462;28;20042;-78
2024/01/12 01:18:15;;;;;;;1.60;1.40;;;;;;;-0.97;100.00;92897.59;5027747;28;20439;-77
2024/01/12 01:20:41;;;;;;;1.75;1.30;;;;;;;-1.00;100.00;92898.03;5010288;28;20071;-78
2024/01/12 01:23:06;;;;;;;1.52;1.20;;;;;;;-0.98;100.00;92896.81;5026849;28;20068;-77
2024/01/12 01:25:32;;;;;;;1.58;1.30;;;;;;;-0.98;100.00;92896.81;5023746;28;20444;-77
2024/01/12 01:27:58;;;;;;;1.45;1.30;;;;;;;-0.99;100.00;92900.41;5025668;28;20066;-78
2024/01/12 01:30:23;;;;;;;1.83;1.35;;;;;;;-0.99;100.00;92894.44;5028525;28;20373;-77
2024/01/12 01:32:49;;;;;;;1.52;1.20;;;;;;;-1.01;100.00;92888.72;5026832;28;20022;-78
2024/01/12 01:35:16;;;;;;;1.48;1.30;;;;;;;-0.99;100.00;92889.31;5027614;28;20044;-77
2024/01/12 01:37:41;;;;;;;2.60;1.40;;;;;;;-1.00;100.00;92892.88;5027157;28;20026;-78
2024/01/12 01:40:08;;;;;;;1.88;1.40;;;;;;;-1.01;100.00;92893.88;5027994;28;20064;-78
2024/01/12 01:42:34;;;;;;;2.20;1.40;;;;;;;-0.98;100.00;92893.47;5024773;28;20497;-78
2024/01/12 01:45:00;;;;;;;2.47;1.60;;;;;;;-0.99;100.00;92889.31;5017177;28;20044;-77
2024/01/12 01:47:27;;;;;;;3.90;2.05;;;;;;;-0.96;100.00;92878.63;4999422;28;20029;-78
2024/01/12 01:49:53;;;;;;;3.17;1.98;;;;;;;-0.96;100.00;92883.78;5027003;28;20038;-78
2024/01/12 01:52:20;;;;;;;2.97;1.73;;;;;;;-0.96;100.00;92873.50;5028614;28;20033;-78
2024/01/12 01:54:47;;;;;;;1.70;1.50;;;;;;;-0.94;100.00;92884.38;5028128;28;20040;-78
2024/01/12 01:57:13;;;;;;;1.35;1.10;;;;;;;-0.89;100.00;92884.53;5027012;28;20087;-78
2024/01/12 01:59:39;;;;;;;2.88;1.90;;;;;;;-0.97;100.00;92874.47;5027822;28;20069;-77
2024/01/12 02:02:05;;;;;;;1.73;1.30;;;;;;;-0.91;100.00;92886.50;5007699;28;20116;-77
2024/01/12 02:04:31;;;;;;;1.73;1.38;;;;;;;-0.98;100.00;92885.75;5010107;28;20073;-78
2024/01/12 02:06:56;;;;;;;5.50;3.40;;;;;;;-0.98;100.00;92891.69;5026465;28;20036;-77
2024/01/12 02:09:23;;;;;;;6.85;4.47;;;;;;;-0.97;100.00;92887.31;5026158;28;20042;-77
2024/01/12 02:11:49;;;;;;;4.05;2.10;;;;;;;-0.97;100.00;92877.03;5007086;28;20379;-77
2024/01/12 02:14:15;;;;;;;1.98;1.50;;;;;;;-1.01;100.00;92881.00;5025954;28;20234;-77
2024/01/12 02:16:41;;;;;;;1.48;1.20;;;;;;;-1.01;100.00;92873.31;5025984;28;20033;-77
2024/01/12 02:19:06;;;;;;;1.55;1.30;;;;;;;-1.01;100.00;92871.53;5025972;28;20073;-77
2024/01/12 02:21:33;;;;;;;2.50;1.65;;;;;;;-0.99;100.00;92863.63;5026092;28;20112;-77
2024/01/12 02:23:58;;;;;;;2.95;2.00;;;;;;;-0.97;100.00;92866.75;5025850;28;20038;-76
2024/01/12 02:26:25;;;;;;;1.75;1.40;;;;;;;-0.94;100.00;92858.66;5023725;28;20144;-76
2024/01/12 02:28:51;;;;;;;2.20;1.45;;;;;;;-0.98;100.00;92852.34;5026263;28;20049;-77
2024/01/12 02:31:17;;;;;;;1.65;1.45;;;;;;;-0.94;100.00;92856.09;5030112;28;20033;-77
2024/01/12 02:33:42;;;;;;;1.90;1.40;;;;;;;-1.01;100.00;92840.72;5029655;28;20029;-77
2024/01/12 02:36:08;;;;;;;1.70;1.40;;;;;;;-1.00;100.00;92854.34;5023340;28;20055;-77
2024/01/12 02:38:33;;;;;;;1.65;1.38;;;;;;;-1.05;100.00;92853.16;5031454;28;20041;-77
2024/01/12 02:40:59;;;;;;;1.60;1.23;;;;;;;-1.06;100.00;92849.03;5030712;28;20029;-77
2024/01/12 02:43:27;;;;;;;1.50;1.30;;;;;;;-1.13;100.00;92845.69;5030995;28;20048;-77
2024/01/12 02:45:52;;;;;;;1.40;1.25;;;;;;;-1.11;100.00;92835.22;5028385;28;20033;-77
2024/01/12 02:48:18;;;;;;;1.63;1.30;;;;;;;-1.10;100.00;92826.53;5029894;28;20417;-76
2024/01/12 02:50:43;;;;;;;1.63;1.35;;;;;;;-1.11;100.00;92828.28;5029400;28;20120;-77
2024/01/12 02:53:09;;;;;;;1.40;1.20;;;;;;;-1.22;100.00;92810.97;5030121;28;20042;-77
2024/01/12 02:55:34;;;;;;;1.48;1.30;;;;;;;-1.14;100.00;92815.88;5028771;28;20025;-77
2024/01/12 02:58:00;;;;;;;1.60;1.27;;;;;;;-1.09;100.00;92816.03;5029111;28;20038;-77
2024/01/12 03:00:25;;;;;;;1.25;1.15;;;;;;;-1.15;100.00;92804.03;5017870;28;20043;-78
2024/01/12 03:02:51;;;;;;;1.42;1.27;;;;;;;-1.20;100.00;92801.28;5028996;28;20137;-77
2024/01/12 03:05:16;;;;;;;2.08;1.40;;;;;;;-1.19;100.00;92805.44;5030291;28;20029;-76
2024/01/12 03:07:42;;;;;;;1.42;1.20;;;;;;;-1.19;100.00;92808.00;5020947;28;20037;-77
2024/01/12 03:10:08;;;;;;;1.40;1.20;;;;;;;-1.19;100.00;92805.44;5012239;28;20393;-77
2024/01/12 03:12:34;;;;;;;1.58;1.27;;;;;;;-1.19;100.00;92810.56;5022497;28;20033;-77
2024/01/12 03:15:00;;;;;;;1.98;1.33;;;;;;;-1.18;100.00;92804.41;5028839;28;20028;-77
2024/01/12 03:17:25;;;;;;;2.13;1.30;;;;;;;-1.22;100.00;92798.13;5021096;28;20040;-77
2024/01/12 03:19:51;;;;;;;1.85;1.42;;;;;;;-1.12;100.00;92803.59;5029614;28;20048;-77
2024/01/12 03:22:16;;;;;;;2.15;1.63;;;;;;;-1.14;100.00;92797.88;5030868;28;20041;-77
2024/01/12 03:24:42;;;;;;;3.88;2.20;;;;;;;-1.11;100.00;92802.59;5029327;28;20033;-77
2024/01/12 03:27:07;;;;;;;3.38;1.90;;;;;;;-1.10;100.00;92799.06;5029515;28;20400;-76
2024/01/12 03:29:35;;;;;;;2.17;1.50;;;;;;;-1.10;100.00;92799.06;5029375;28;20051;-76
2024/01/12 03:32:01;;;;;;;1.80;1.40;;;;;;;-1.09;100.00;92792.13;5030151;28;20056;-76
2024/01/12 03:34:26;;;;;;;1.63;1.40;;;;;;;-1.07;100.00;92780.63;5030100;28;20099;-77
2024/01/12 03:36:52;;;;;;;1.52;1.40;;;;;;;-1.07;100.00;92790.91;5025573;28;20068;-77
2024/01/12 03:39:17;;;;;;;2.45;1.27;;;;;;;-1.05;100.00;92788.16;5031324;28;20036;-78
2024/01/12 03:41:43;;;;;;;2.47;1.50;;;;;;;-1.05;100.00;92790.72;5030167;28;20029;-77
2024/01/12 03:44:08;;;;;;;2.13;1.50;;;;;;;-1.07;100.00;92792.72;5028847;28;20040;-77
2024/01/12 03:46:35;;;;;;;2.03;1.30;;;;;;;-1.09;100.00;92787.75;5023273;28;20043;-78
2024/01/12 03:49:02;;;;;;;1.30;1.20;;;;;;;-1.08;100.00;92789.34;5029905;28;20083;-78
2024/01/12 03:51:28;;;;;;;1.75;1.40;;;;;;;-1.07;100.00;92783.22;5026709;28;20121;-77
2024/01/12 03:53:53;;;;;;;1.75;1.40;;;;;;;-1.06;100.00;92776.28;5029722;28;20117;-77
2024/01/12 03:56:19;;;;;;;1.90;1.48;;;;;;;-1.05;100.00;92768.38;5029687;28;20107;-78
2024/01/12 03:58:44;;;;;;;1.48;1.30;;;;;;;-1.06;100.00;92766.81;5030333;28;20026;-78
2024/01/12 04:01:10;;;;;;;1.63;1.40;;;;;;;-1.04;100.00;92766.59;5029157;28;20647;-77
2024/01/12 04:03:37;;;;;;;2.47;1.50;;;;;;;-1.07;100.00;92757.50;5020333;28;20505;-77
2024/01/12 04:06:10;;;;;;;1.77;1.40;;;;;;;-1.04;100.00;92758.88;5028498;28;20034;-77
2024/01/12 04:08:35;;;;;;;1.38;1.27;;;;;;;-1.05;100.00;92758.09;5027598;28;20544;-77
2024/01/12 04:11:01;;;;;;;1.40;1.30;;;;;;;-1.09;100.00;92754.34;5026493;28;20042;-77
2024/01/12 04:13:27;;;;;;;1.38;1.20;;;;;;;-0.99;100.00;92765.97;5021321;28;20451;-78
2024/01/12 04:15:53;;;;;;;1.75;1.40;;;;;;;-0.93;100.00;92765.91;5028747;28;20036;-78
2024/01/12 04:18:18;;;;;;;1.98;1.50;;;;;;;-0.91;100.00;92768.28;5026939;28;20045;-77
2024/01/12 04:20:46;;;;;;;1.65;1.23;;;;;;;-0.92;100.00;92762.38;5008376;28;20076;-77
2024/01/12 04:23:12;;;;;;;1.85;1.50;;;;;;;-0.92;100.00;92767.50;5025977;28;20501;-78
2024/01/12 04:25:37;;;;;;;2.47;1.40;;;;;;;-0.92;100.00;92762.38;5020285;28;20033;-77
2024/01/12 04:28:03;;;;;;;1.65;1.20;;;;;;;-0.92;100.00;92767.50;5029231;28;20048;-77
2024/01/12 04:30:29;;;;;;;3.45;1.30;;;;;;;-0.95;100.00;92762.75;5025856;28;20091;-78
2024/01/12 04:32:55;;;;;;;1.90;1.50;;;;;;;-0.93;100.00;92760.78;4995337;28;20107;-78
2024/01/12 04:35:21;;;;;;;1.30;1.20;;;;;;;-0.96;100.00;92755.28;5028353;28;20029;-78
2024/01/12 04:37:47;;;;;;;2.05;1.40;;;;;;;-0.93;100.00;92762.56;5029424;28;20056;-78
2024/01/12 04:40:12;;;;;;;1.52;1.30;;;;;;;-0.92;100.00;92759.00;5027824;28;20025;-77
2024/01/12 04:42:39;;;;;;;1.60;1.40;;;;;;;-0.96;100.00;92760.41;5028805;28;20417;-77
2024/01/12 04:45:05;;;;;;;1.48;1.20;;;;;;;-1.01;100.00;92762.81;5027740;28;20044;-78
2024/01/12 04:47:30;;;;;;;1.38;1.25;;;;;;;-1.08;100.00;92758.53;5028916;28;20053;-77
2024/01/12 04:49:56;;;;;;;2.42;1.60;;;;;;;-1.11;100.00;92753.78;5027150;28;20033;-77
2024/01/12 04:52:21;;;;;;;2.30;1.55;;;;;;;-1.10;100.00;92755.38;5026541;28;20075;-77
2024/01/12 04:54:47;;;;;;;1.83;1.50;;;;;;;-1.12;100.00;92756.56;5028392;28;20036;-77
2024/01/12 04:57:13;;;;;;;2.88;1.50;;;;;;;-1.17;100.00;92751.25;5026904;28;20501;-78
2024/01/12 04:59:40;;;;;;;1.42;1.20;;;;;;;-1.18;100.00;92754.81;5021730;28;20029;-78
2024/01/12 05:02:07;;;;;;;2.10;1.33;;;;;;;-1.15;100.00;92757.78;4994288;28;20493;-78
2024/01/12 05:04:32;;;;;;;1.80;1.33;;;;;;;-1.15;100.00;92757.78;5010339;28;20049;-77
2024/01/12 05:06:58;;;;;;;2.35;1.50;;;;;;;-1.14;100.00;92764.47;5025554;28;20127;-78
2024/01/12 05:09:24;;;;;;;1.90;1.50;;;;;;;-1.14;100.00;92773.97;5028204;28;20049;-77
2024/01/12 05:11:49;;;;;;;1.52;1.25;;;;;;;-1.12;100.00;92772.00;5026639;28;20037;-77
2024/01/12 05:14:15;;;;;;;1.85;1.40;;;;;;;-1.12;100.00;92767.63;5028045;28;20033;-77
2024/01/12 05:16:41;;;;;;;1.70;1.40;;;;;;;-1.10;100.00;92768.22;5026472;28;20072;-77
2024/01/12 05:19:07;;;;;;;1.85;1.40;;;;;;;-1.06;100.00;92766.00;5026637;28;20033;-77
2024/01/12 05:21:32;;;;;;;2.10;1.48;;;;;;;-1.05;100.00;92768.38;5027944;28;20535;-77
2024/01/12 05:23:58;;;;;;;1.33;1.23;;;;;;;-1.04;100.00;92769.16;5028172;28;20493;-76
2024/01/12 05:26:23;;;;;;;1.77;1.35;;;;;;;-1.06;100.00;92782.22;5021075;28;20038;-77
2024/01/12 05:28:49;;;;;;;1.30;1.20;;;;;;;-1.08;100.00;92768.78;5026278;28;20192;-76
2024/01/12 05:31:15;;;;;;;1.63;1.30;;;;;;;-1.09;100.00;92777.50;5025452;28;20033;-77
2024/01/12 05:33:40;;;;;;;1.55;1.30;;;;;;;-1.06;100.00;92766.00;5025190;28;20409;-77
2024/01/12 05:36:06;;;;;;;1.92;1.50;;;;;;;-1.10;100.00;92770.78;5038185;28;20044;-77
2024/01/12 05:38:31;;;;;;;1.60;1.30;;;;;;;-1.10;100.00;92781.06;5029672;28;20026;-77
2024/01/12 05:40:57;;;;;;;1.27;1.17;;;;;;;-1.13;100.00;92786.59;5032737;28;20099;-79
2024/01/12 05:43:23;;;;;;;1.90;1.42;;;;;;;-1.09;100.00;92792.91;5028922;28;20030;-80
2024/01/12 05:45:48;;;;;;;1.77;1.40;;;;;;;-1.08;100.00;92791.94;5032358;28;20041;-77
2024/01/12 05:48:14;;;;;;;2.13;1.30;;;;;;;-1.07;100.00;92801.19;5021587;28;20557;-76
2024/01/12 05:50:39;;;;;;;1.33;1.23;;;;;;;-1.13;100.00;92790.97;4994906;28;20501;-77
2024/01/12 05:53:06;;;;;;;1.63;1.30;;;;;;;-1.14;100.00;92791.97;5013691;28;20125;-78
2024/01/12 05:55:32;;;;;;;2.25;1.50;;;;;;;-1.20;100.00;92791.00;5016809;28;20041;-77
2024/01/12 05:57:57;;;;;;;1.63;1.23;;;;;;;-1.18;100.00;92790.78;5028688;28;20083;-79
2024/01/12 06:00:23;;;;;;;1.73;1.40;;;;;;;-1.19;100.00;92797.72;5034120;28;20450;-79
2024/01/12 06:02:48;;;;;;;2.05;1.40;;;;;;;-1.20;100.00;92798.69;5017361;28;20133;-77
2024/01/12 06:05:14;;;;;;;1.50;1.20;;;;;;;-1.20;100.00;92791.00;5033693;28;20440;-78
2024/01/12 06:07:39;;;;;;;2.20;1.50;;;;;;;-1.19;100.00;92792.59;5037322;28;20053;-79
2024/01/12 06:10:08;;;;;;;1.50;1.30;;;;;;;-1.20;100.00;92785.06;5035436;28;20053;-78
2024/01/12 06:12:34;;;;;;;2.17;1.50;;;;;;;-1.21;100.00;92786.88;5036421;28;20056;-78
2024/01/12 06:15:00;;;;;;;2.58;1.60;;;;;;;-1.19;100.00;92792.59;5035423;28;20080;-78
2024/01/12 06:17:26;;;;;;;1.58;1.33;;;;;;;-1.26;100.00;92779.00;5035419;28;20116;-78
2024/01/12 06:19:51;;;;;;;2.45;1.38;;;;;;;-1.18;100.00;92799.28;5034440;28;20076;-76
2024/01/12 06:22:17;;;;;;;3.33;2.10;;;;;;;-1.21;100.00;92797.13;5035732;28;20037;-79
2024/01/12 06:24:42;;;;;;;3.67;1.80;;;;;;;-1.20;100.00;92793.56;4999863;28;20670;-78
2024/01/12 06:27:08;;;;;;;1.98;1.40;;;;;;;-1.22;100.00;92795.53;5033932;28;20029;-78
2024/01/12 06:29:36;;;;;;;2.15;1.52;;;;;;;-1.24;100.00;92802.66;5013979;28;20490;-77
2024/01/12 06:32:03;;;;;;;2.58;1.67;;;;;;;-1.18;100.00;92807.00;5013623;28;20087;-77
2024/01/12 06:34:29;;;;;;;4.18;2.60;;;;;;;-1.19;100.00;92812.31;5028480;28;20558;-78
2024/01/12 06:36:56;;;;;;;4.30;2.47;;;;;;;-1.26;100.00;92812.38;5034211;28;20025;-77
2024/01/12 06:39:22;;;;;;;8.38;4.85;;;;;;;-1.24;100.00;92815.50;5032853;28;20036;-77
2024/01/12 06:41:47;;;;;;;5.05;3.20;;;;;;;-1.21;100.00;92817.69;5015774;28;20029;-77
2024/01/12 06:44:13;;;;;;;3.60;2.33;;;;;;;-1.20;100.00;92818.47;5032801;28;20037;-78
2024/01/12 06:46:43;;;;;;;3.78;2.10;;;;;;;-1.21;100.00;92817.69;5033638;28;20033;-77
2024/01/12 06:49:09;;;;;;;2.80;1.90;;;;;;;-1.22;100.00;92826.38;5032716;28;20048;-78
2024/01/12 06:51:35;;;;;;;2.38;1.60;;;;;;;-1.22;100.00;92823.03;5031772;28;20029;-77
2024/01/12 06:54:02;;;;;;;2.67;1.63;;;;;;;-1.20;100.00;92826.97;5034782;28;20041;-78
2024/01/12 06:56:27;;;;;;;2.00;1.50;;;;;;;-1.14;100.00;92830.50;5034252;28;20053;-76
2024/01/12 06:58:53;;;;;;;2.80;1.77;;;;;;;-1.11;100.00;92828.28;5007665;28;20532;-75
2024/01/12 07:01:19;;;;;;;2.58;1.65;;;;;;;-1.08;100.00;92825.31;5010489;28;20045;-75
2024/01/12 07:03:47;;;;;;;2.30;1.60;;;;;;;-1.06;100.00;92837.94;5026717;28;20056;-74
2024/01/12 07:06:12;;;;;;;3.08;1.60;;;;;;;-1.09;100.00;92841.72;5026213;28;20033;-74
2024/01/12 07:08:38;;;;;;;2.47;1.63;;;;;;;-1.07;100.00;92844.88;5021039;28;20044;-75
2024/01/12 07:11:05;;;;;;;2.40;1.52;;;;;;;-1.08;100.00;92843.31;5011139;28;20045;-74
2024/01/12 07:13:31;;;;;;;1.65;1.30;;;;;;;-1.08;100.00;92851.03;5024382;28;20396;-74
2024/01/12 07:15:56;;;;;;;1.65;1.30;;;;;;;-1.09;100.00;92849.44;5028570;28;20091;-74
2024/01/12 07:18:22;;;;;;;2.03;1.20;;;;;;;-1.07;100.00;92852.59;5027452;28;20037;-74
2024/01/12 07:20:48;;;;;;;1.98;1.42;;;;;;;-1.12;100.00;92855.00;5024304;28;20033;-74
2024/01/12 07:23:14;;;;;;;1.80;1.40;;;;;;;-1.05;100.00;92860.88;5022248;28;20445;-75
2024/01/12 07:25:39;;;;;;;2.00;1.40;;;;;;;-1.03;100.00;92868.38;5026447;28;20033;-75
2024/01/12 07:28:06;;;;;;;3.83;1.33;;;;;;;-0.96;100.00;92863.22;5015330;28;20100;-76
2024/01/12 07:30:32;;;;;;;2.70;1.50;;;;;;;-0.30;100.00;92857.63;5027095;28;20037;-77
2024/01/12 07:32:57;;;;;;;1.95;1.40;;;;;;;1.18;100.00;92861.00;5025434;28;20033;-75
2024/01/12 07:35:23;;;;;;;2.13;1.52;;;;;;;2.46;100.00;92865.75;5025180;28;20033;-75
2024/01/12 07:37:50;;;;;;;2.03;1.50;;;;;;;3.60;100.00;92867.63;5019629;28;20144;-76
2024/01/12 07:40:16;;;;;;;2.05;1.40;;;;;;;4.68;100.00;92872.56;5027065;28;20029;-77
2024/01/12 07:42:42;;;;;;;1.92;1.50;;;;;;;5.75;99.30;92869.59;5022472;28;20065;-76
2024/01/12 07:45:08;;;;;;;2.65;1.50;;;;;;;6.79;87.85;92876.03;5024039;28;20089;-77
2024/01/12 07:47:34;;;;;;;1.95;1.40;;;;;;;7.76;79.81;92872.19;5024377;28;20381;-76
2024/01/12 07:50:00;;;;;;;3.17;1.70;;;;;;;8.77;73.43;92873.22;5025967;28;20057;-76
2024/01/12 07:52:26;;;;;;;2.42;1.60;;;;;;;9.67;68.74;92863.72;5027462;28;20053;-76
2024/01/12 07:54:52;;;;;;;2.65;1.60;;;;;;;10.46;61.85;92872.31;5025333;28;20033;-77
2024/01/12 07:57:17;;;;;;;2.42;1.63;;;;;;;10.81;55.35;92886.13;5029105;28;20040;-77
2024/01/12 07:59:43;;;;;;;2.40;1.55;;;;;;;11.71;52.53;92875.91;5028181;28;20033;-77
2024/01/12 08:02:09;;;;;;;2.33;1.60;;;;;;;12.02;50.95;92877.09;5002040;28;20083;-75
2024/01/12 08:04:37;;;;;;;3.65;1.77;;;;;;;12.77;47.33;92869.34;5011224;28;20038;-75
2024/01/12 08:07:03;;;;;;;2.60;1.70;;;;;;;13.37;44.11;92869.28;5029486;28;20041;-78
2024/01/12 08:09:29;;;;;;;4.07;2.00;;;;;;;13.55;40.87;92878.13;5029097;28;20099;-75
2024/01/12 08:11:57;;;;;;;2.47;1.60;;;;;;;13.67;40.70;92885.53;5019893;28;20582;-76
2024/01/12 08:14:23;;;;;;;2.67;1.70;;;;;;;14.27;39.62;92889.75;5023243;28;20029;-76
2024/01/12 08:16:49;;;;;;;2.88;1.67;;;;;;;14.12;41.73;92891.66;5022528;28;20033;-77
2024/01/12 08:19:15;;;;;;;3.55;1.92;;;;;;;14.46;37.90;92898.25;5028630;28;20042;-77
2024/01/12 08:21:41;;;;;;;2.90;1.88;;;;;;;15.10;36.90;92895.38;5007358;28;20045;-77
2024/01/12 08:24:07;;;;;;;3.30;2.10;;;;;;;16.21;34.94;92900.50;5008208;28;20468;-78
2024/01/12 08:26:33;;;;;;;3.83;2.00;;;;;;;15.98;34.81;92905.13;5027979;28;20140;-77
2024/01/12 08:29:01;;;;;;;3.30;2.10;;;;;;;15.71;34.19;92905.38;5029043;28;20620;-78
2024/01/12 08:31:28;;;;;;;3.28;2.25;;;;;;;15.06;36.43;92912.09;5016686;28;20048;-77
2024/01/12 08:33:54;;;;;;;3.80;2.22;;;;;;;14.30;35.77;92918.91;5026057;28;20520;-77
2024/01/12 08:36:19;;;;;;;3.90;2.30;;;;;;;16.02;34.14;92919.25;5025202;28;20041;-77
2024/01/12 08:38:45;;;;;;;3.67;2.20;;;;;;;15.47;34.31;92917.09;5026185;28;20116;-77
2024/01/12 08:41:11;;;;;;;3.95;2.00;;;;;;;14.91;35.88;92929.09;5027865;28;20041;-77
2024/01/12 08:43:36;;;;;;;3.15;1.98;;;;;;;15.57;35.31;92932.63;5027941;28;20124;-77
2024/01/12 08:46:02;;;;;;;4.15;2.13;;;;;;;14.67;35.12;92930.19;5028799;28;20079;-77
2024/01/12 08:48:28;;;;;;;3.13;1.90;;;;;;;14.88;35.12;92924.41;5029583;28;20060;-78
2024/01/12 08:50:53;;;;;;;3.90;2.03;;;;;;;14.89;35.80;92931.25;5022852;28;20544;-77
2024/01/12 08:53:19;;;;;;;3.00;1.90;;;;;;;14.71;36.10;92933.78;5026757;28;20317;-77
2024/01/12 08:55:45;;;;;;;3.53;2.03;;;;;;;13.66;36.94;92933.94;5026893;28;20038;-77
2024/01/12 08:58:10;;;;;;;3.80;2.20;;;;;;;13.43;38.27;92935.72;5011208;28;20030;-77
2024/01/12 09:00:36;;;;;;;3.33;2.10;;;;;;;12.48;38.40;92933.34;5027199;28;20358;-77
2024/01/12 09:03:04;;;;;;;3.90;2.20;;;;;;;12.18;41.84;92938.00;5028752;28;20033;-77
2024/01/12 09:05:31;;;;;;;3.50;2.30;;;;;;;12.75;40.14;92950.28;5028651;28;20060;-77
2024/01/12 09:07:56;;;;;;;3.95;2.60;;;;;;;12.30;41.16;92948.06;5023094;28;20072;-77
2024/01/12 09:10:22;;;;;;;4.78;2.40;;;;;;;13.93;39.10;92941.78;5026489;28;20038;-77
2024/01/12 09:12:47;;;;;;;4.20;2.40;;;;;;;13.30;38.88;92951.16;5026860;28;20056;-77
2024/01/12 09:15:14;;;;;;;3.50;2.47;;;;;;;14.62;36.97;92950.63;5028099;28;20106;-77
2024/01/12 09:17:43;;;;;;;3.80;2.10;;;;;;;14.50;36.37;92956.38;5020201;28;20054;-77
2024/01/12 09:20:09;;;;;;;4.70;3.05;;;;;;;14.50;35.58;92957.16;5027947;28;20040;-77
2024/01/12 09:22:35;;;;;;;4.35;2.30;;;;;;;14.55;36.10;92941.25;5026298;28;20441;-77
2024/01/12 09:25:01;;;;;;;4.03;2.35;;;;;;;13.92;36.75;92950.00;5023785;28;20096;-77
2024/01/12 09:27:27;;;;;;;3.38;1.90;;;;;;;13.47;39.30;92950.59;5028852;28;20508;-77
2024/01/12 09:29:52;;;;;;;3.10;2.00;;;;;;;14.12;39.98;92956.69;5029181;28;20041;-77
2024/01/12 09:32:18;;;;;;;2.53;1.45;;;;;;;14.33;38.85;92957.78;5026691;28;20117;-77
2024/01/12 09:34:44;;;;;;;2.22;1.40;;;;;;;14.60;36.81;92961.44;5027754;28;20044;-77
2024/01/12 09:37:09;;;;;;;2.05;1.30;;;;;;;14.68;36.68;92962.56;5024374;28;20022;-77
2024/01/12 09:39:35;;;;;;;2.13;1.50;;;;;;;14.01;36.32;92957.97;5015595;28;20032;-77
2024/01/12 09:42:04;;;;;;;3.30;1.90;;;;;;;14.15;37.25;92967.41;5026815;28;20029;-77
2024/01/12 09:44:37;;;;;;;3.05;1.83;;;;;;;13.26;38.06;92973.03;5021665;28;20061;-77
2024/01/12 09:47:03;;;;;;;3.17;1.90;;;;;;;12.13;41.26;92974.03;5026833;28;20256;-77
2024/01/12 09:49:31;;;;;;;3.60;1.83;;;;;;;11.69;45.08;92969.84;5018891;28;20018;-77
2024/01/12 09:52:03;;;;;;;3.50;2.20;;;;;;;11.02;46.79;92970.53;5026152;28;20071;-77
2024/01/12 09:54:29;;;;;;;3.58;2.10;;;;;;;11.09;48.05;92950.03;5027401;28;20029;-77
2024/01/12 09:56:58;;;;;;;3.53;1.92;;;;;;;10.83;51.40;92962.59;5026354;28;20032;-77
2024/01/12 09:59:25;;;;;;;3.45;2.28;;;;;;;10.44;52.66;92963.41;5026512;28;20417;-77
2024/01/12 10:01:51;;;;;;;3.65;2.15;;;;;;;10.07;54.29;92959.44;5027118;28;20029;-76
2024/01/12 10:04:17;;;;;;;3.45;1.88;;;;;;;9.93;55.37;92963.69;5024033;28;20026;-76
2024/01/12 10:06:42;;;;;;;3.97;2.40;;;;;;;9.59;57.65;92966.97;5027092;28;20608;-76
2024/01/12 10:09:09;;;;;;;4.07;2.58;;;;;;;9.73;58.32;92967.97;5026066;28;20510;-76
2024/01/12 10:11:35;;;;;;;4.35;2.67;;;;;;;9.51;55.41;92964.94;5027169;28;20575;-76
2024/01/12 10:14:00;;;;;;;4.68;2.80;;;;;;;9.21;59.27;92966.59;5021569;28;20034;-77
2024/01/12 10:16:29;;;;;;;3.95;2.22;;;;;;;9.52;57.99;92969.09;5026176;28;20037;-76
2024/01/12 10:18:56;;;;;;;4.32;2.28;;;;;;;9.93;58.62;92968.91;5027097;28;20397;-76
2024/01/12 10:21:23;;;;;;;5.20;2.40;;;;;;;10.59;53.62;92960.66;5027559;28;20034;-76
2024/01/12 10:23:49;;;;;;;4.65;2.40;;;;;;;10.61;53.04;92955.94;5025472;28;20041;-76
2024/01/12 10:26:17;;;;;;;3.88;2.40;;;;;;;10.65;53.52;92965.84;5026873;28;20021;-76
2024/01/12 10:28:44;;;;;;;3.92;2.13;;;;;;;10.18;54.94;92960.16;5026672;28;20099;-76
2024/01/12 10:31:10;;;;;;;3.80;2.38;;;;;;;9.80;55.94;92963.22;5026448;28;20029;-76
2024/01/12 10:33:36;;;;;;;4.32;2.47;;;;;;;10.11;53.97;92965.69;5027122;28;20436;-76
2024/01/12 10:36:15;;;;;;;3.72;2.00;;;;;;;9.89;53.28;92971.31;5022405;28;20277;-76
2024/01/12 10:38:44;;;;;;;3.38;2.20;;;;;;;9.64;57.16;92969.59;5018762;28;20029;-76
2024/01/12 10:41:11;;;;;;;3.90;2.55;;;;;;;9.35;57.87;92972.03;5027401;28;20099;-76
2024/01/12 10:43:38;;;;;;;3.78;2.30;;;;;;;9.05;60.33;92962.44;5024265;28;20425;-76
2024/01/12 10:46:16;;;;;;;3.85;2.38;;;;;;;9.47;57.97;92953.44;5022074;28;20076;-76
2024/01/12 10:48:54;;;;;;;4.68;2.60;;;;;;;9.21;61.24;92964.00;5019651;28;20030;-76
2024/01/12 10:51:24;;;;;;;4.13;2.50;;;;;;;8.79;63.01;92974.75;5026649;28;20034;-76
2024/01/12 10:54:08;;;;;;;4.47;2.88;;;;;;;9.18;62.79;92957.44;5027707;28;20021;-77
2024/01/12 10:56:35;;;;;;;3.33;2.20;;;;;;;9.30;57.58;92959.78;5029463;28;20095;-76
2024/01/12 10:59:04;;;;;;;4.22;2.65;;;;;;;9.68;56.57;92954.94;5029108;28;20032;-76
2024/01/12 11:01:33;;;;;;;3.88;2.40;;;;;;;9.85;57.60;92951.19;5028755;28;20065;-75
2024/01/12 11:03:59;;;;;;;3.90;2.40;;;;;;;10.23;53.16;92946.25;5027898;28;20060;-75
2024/01/12 11:06:29;;;;;;;3.17;2.03;;;;;;;10.16;56.82;92949.97;5028305;28;20128;-76
2024/01/12 11:08:56;;;;;;;4.13;2.55;;;;;;;9.81;56.88;92937.88;5028459;28;20053;-75
2024/01/12 11:11:29;;;;;;;5.00;2.50;;;;;;;9.42;57.98;92948.25;5025179;28;20138;-76
2024/01/12 11:13:55;;;;;;;4.43;2.55;;;;;;;9.22;60.36;92952.47;5029962;28;20033;-77
2024/01/12 11:16:24;;;;;;;8.57;2.70;;;;;;;9.02;64.18;92947.31;5027857;28;20025;-77
2024/01/12 11:18:50;;;;;;;2.67;1.85;;;;;;;9.24;63.52;92937.31;5023934;28;20045;-76
2024/01/12 11:21:23;;;;;;;4.55;2.65;;;;;;;9.62;59.56;92944.78;5029396;28;20021;-76
2024/01/12 11:23:49;;;;;;;4.90;2.80;;;;;;;9.23;62.46;92950.66;5030424;28;20068;-76